sensor_id;sensor_type;location;lat;lon;timestamp;pressure;altitude;pressure_sealevel;temperature;humidity
63568;BME280;49715;42.386;20.434;2023-01-30T00:00:03;97834.94;;;3.50;59.24
63568;BME280;49715;42.386;20.434;2023-01-30T00:02:31;97843.53;;;3.52;59.27
63568;BME280;49715;42.386;20.434;2023-01-30T00:04:57;97839.69;;;3.57;59.19
63568;BME280;49715;42.386;20.434;2023-01-30T00:07:24;97829.75;;;3.50;59.26
63568;BME280;49715;42.386;20.434;2023-01-30T00:09:50;97837.16;;;3.56;59.15
63568;BME280;49715;42.386;20.434;2023-01-30T00:12:16;97842.00;;;3.62;59.23
63568;BME280;49715;42.386;20.434;2023-01-30T00:14:43;97835.84;;;3.63;59.30
63568;BME280;49715;42.386;20.434;2023-01-30T00:17:09;97835.03;;;3.63;59.25
63568;BME280;49715;42.386;20.434;2023-01-30T00:19:36;97837.53;;;3.64;59.26
63568;BME280;49715;42.386;20.434;2023-01-30T00:22:02;97840.66;;;3.69;59.18
63568;BME280;49715;42.386;20.434;2023-01-30T00:24:28;97843.28;;;3.69;59.24
63568;BME280;49715;42.386;20.434;2023-01-30T00:26:55;97830.25;;;3.69;59.14
63568;BME280;49715;42.386;20.434;2023-01-30T00:29:21;97827.53;;;3.71;59.17
63568;BME280;49715;42.386;20.434;2023-01-30T00:31:48;97834.63;;;3.69;59.20
63568;BME280;49715;42.386;20.434;2023-01-30T00:34:16;97831.06;;;3.70;59.15
63568;BME280;49715;42.386;20.434;2023-01-30T00:36:43;97820.13;;;3.65;59.24
63568;BME280;49715;42.386;20.434;2023-01-30T00:39:09;97828.47;;;3.70;59.23
63568;BME280;49715;42.386;20.434;2023-01-30T00:41:36;97826.09;;;3.67;59.21
63568;BME280;49715;42.386;20.434;2023-01-30T00:44:21;97824.19;;;3.69;59.06
63568;BME280;49715;42.386;20.434;2023-01-30T00:47:07;97820.94;;;3.65;59.04
63568;BME280;49715;42.386;20.434;2023-01-30T00:49:35;97825.69;;;3.73;58.98
63568;BME280;49715;42.386;20.434;2023-01-30T00:52:03;97823.19;;;3.71;58.96
63568;BME280;49715;42.386;20.434;2023-01-30T00:54:30;97822.97;;;3.74;58.91
63568;BME280;49715;42.386;20.434;2023-01-30T00:56:58;97821.31;;;3.73;59.00
63568;BME280;49715;42.386;20.434;2023-01-30T00:59:25;97819.81;;;3.69;58.88
63568;BME280;49715;42.386;20.434;2023-01-30T01:01:52;97817.31;;;3.68;59.17
63568;BME280;49715;42.386;20.434;2023-01-30T01:04:19;97810.97;;;3.72;58.88
63568;BME280;49715;42.386;20.434;2023-01-30T01:06:45;97807.91;;;3.65;58.84
63568;BME280;49715;42.386;20.434;2023-01-30T01:09:11;97813.03;;;3.67;58.89
63568;BME280;49715;42.386;20.434;2023-01-30T01:11:39;97805.94;;;3.69;58.98
63568;BME280;49715;42.386;20.434;2023-01-30T01:14:06;97808.25;;;3.73;58.72
63568;BME280;49715;42.386;20.434;2023-01-30T01:16:33;97802.41;;;3.70;58.56
63568;BME280;49715;42.386;20.434;2023-01-30T01:19:01;97803.69;;;3.77;58.48
63568;BME280;49715;42.386;20.434;2023-01-30T01:21:28;97790.13;;;3.72;58.44
63568;BME280;49715;42.386;20.434;2023-01-30T01:23:57;97790.75;;;3.75;58.43
63568;BME280;49715;42.386;20.434;2023-01-30T01:26:24;97790.84;;;3.74;58.46
63568;BME280;49715;42.386;20.434;2023-01-30T01:28:58;97786.56;;;3.73;58.40
63568;BME280;49715;42.386;20.434;2023-01-30T01:31:24;97780.53;;;3.72;58.43
63568;BME280;49715;42.386;20.434;2023-01-30T01:33:51;97776.16;;;3.73;58.23
63568;BME280;49715;42.386;20.434;2023-01-30T01:36:17;97770.94;;;3.73;58.42
63568;BME280;49715;42.386;20.434;2023-01-30T01:38:44;97770.00;;;3.74;58.37
63568;BME280;49715;42.386;20.434;2023-01-30T01:41:11;97770.63;;;3.77;58.48
63568;BME280;49715;42.386;20.434;2023-01-30T01:44:04;97760.41;;;3.74;58.27
63568;BME280;49715;42.386;20.434;2023-01-30T01:49:20;97755.81;;;3.78;58.32
63568;BME280;49715;42.386;20.434;2023-01-30T01:52:03;97758.44;;;3.78;58.24
63568;BME280;49715;42.386;20.434;2023-01-30T01:54:46;97745.50;;;3.76;58.03
63568;BME280;49715;42.386;20.434;2023-01-30T01:57:18;97759.06;;;3.81;58.04
63568;BME280;49715;42.386;20.434;2023-01-30T02:00:20;97751.75;;;3.74;58.04
63568;BME280;49715;42.386;20.434;2023-01-30T02:02:51;97754.06;;;3.78;57.98
63568;BME280;49715;42.386;20.434;2023-01-30T02:05:21;97752.69;;;3.73;58.35
63568;BME280;49715;42.386;20.434;2023-01-30T02:07:49;97753.31;;;3.76;58.34
63568;BME280;49715;42.386;20.434;2023-01-30T02:10:21;97738.91;;;3.71;58.52
63568;BME280;49715;42.386;20.434;2023-01-30T02:12:49;97750.59;;;3.78;58.68
63568;BME280;49715;42.386;20.434;2023-01-30T02:15:18;97743.44;;;3.81;58.84
63568;BME280;49715;42.386;20.434;2023-01-30T02:17:45;97741.97;;;3.77;58.62
63568;BME280;49715;42.386;20.434;2023-01-30T02:26:50;97722.28;;;3.59;58.47
63568;BME280;49715;42.386;20.434;2023-01-30T02:32:20;97730.13;;;3.59;58.43
63568;BME280;49715;42.386;20.434;2023-01-30T02:41:05;97723.19;;;3.45;58.51
63568;BME280;49715;42.386;20.434;2023-01-30T02:46:25;97719.56;;;3.48;58.52
63568;BME280;49715;42.386;20.434;2023-01-30T02:49:28;97719.09;;;3.41;58.49
63568;BME280;49715;42.386;20.434;2023-01-30T02:51:56;97716.72;;;3.38;58.53
63568;BME280;49715;42.386;20.434;2023-01-30T02:54:24;97715.25;;;3.34;58.52
63568;BME280;49715;42.386;20.434;2023-01-30T02:56:56;97715.34;;;3.32;58.50
63568;BME280;49715;42.386;20.434;2023-01-30T03:05:22;97712.25;;;3.13;59.20
63568;BME280;49715;42.386;20.434;2023-01-30T03:08:29;97702.72;;;3.12;59.20
63568;BME280;49715;42.386;20.434;2023-01-30T03:10:59;97700.88;;;3.14;59.15
63568;BME280;49715;42.386;20.434;2023-01-30T03:16:05;97698.00;;;3.19;59.08
63568;BME280;49715;42.386;20.434;2023-01-30T03:18:35;97681.81;;;3.14;59.49
63568;BME280;49715;42.386;20.434;2023-01-30T03:21:06;97706.34;;;3.24;59.11
63568;BME280;49715;42.386;20.434;2023-01-30T03:23:33;97694.34;;;3.21;59.36
63568;BME280;49715;42.386;20.434;2023-01-30T03:26:05;97692.56;;;3.22;59.35
63568;BME280;49715;42.386;20.434;2023-01-30T03:28:34;97698.13;;;3.30;59.14
63568;BME280;49715;42.386;20.434;2023-01-30T03:31:00;97697.00;;;3.34;59.19
63568;BME280;49715;42.386;20.434;2023-01-30T03:33:27;97698.97;;;3.30;59.28
63568;BME280;49715;42.386;20.434;2023-01-30T03:35:54;97690.94;;;3.33;59.23
63568;BME280;49715;42.386;20.434;2023-01-30T03:38:21;97692.22;;;3.41;59.02
63568;BME280;49715;42.386;20.434;2023-01-30T03:40:49;97683.56;;;3.40;58.96
63568;BME280;49715;42.386;20.434;2023-01-30T03:43:16;97682.91;;;3.36;58.95
63568;BME280;49715;42.386;20.434;2023-01-30T03:45:42;97688.69;;;3.42;58.97
63568;BME280;49715;42.386;20.434;2023-01-30T03:48:09;97692.31;;;3.39;59.01
63568;BME280;49715;42.386;20.434;2023-01-30T03:50:35;97686.56;;;3.34;58.96
63568;BME280;49715;42.386;20.434;2023-01-30T03:53:02;97682.38;;;3.31;59.03
63568;BME280;49715;42.386;20.434;2023-01-30T03:55:28;97682.38;;;3.31;59.05
63568;BME280;49715;42.386;20.434;2023-01-30T03:57:56;97674.25;;;3.23;59.14
63568;BME280;49715;42.386;20.434;2023-01-30T04:00:24;97684.38;;;3.28;59.32
63568;BME280;49715;42.386;20.434;2023-01-30T04:02:50;97682.31;;;3.33;59.34
63568;BME280;49715;42.386;20.434;2023-01-30T04:05:19;97671.66;;;3.36;59.27
63568;BME280;49715;42.386;20.434;2023-01-30T04:07:50;97676.81;;;3.38;59.52
63568;BME280;49715;42.386;20.434;2023-01-30T04:10:18;97678.47;;;3.39;59.40
63568;BME280;49715;42.386;20.434;2023-01-30T04:12:45;97666.56;;;3.34;59.24
63568;BME280;49715;42.386;20.434;2023-01-30T04:15:12;97674.38;;;3.34;59.10
63568;BME280;49715;42.386;20.434;2023-01-30T04:17:57;97680.53;;;3.33;59.17
63568;BME280;49715;42.386;20.434;2023-01-30T04:20:26;97661.41;;;3.20;59.22
63568;BME280;49715;42.386;20.434;2023-01-30T04:22:55;97672.59;;;3.22;59.29
63568;BME280;49715;42.386;20.434;2023-01-30T04:25:24;97679.34;;;3.25;59.03
63568;BME280;49715;42.386;20.434;2023-01-30T04:27:50;97676.22;;;3.20;59.48
63568;BME280;49715;42.386;20.434;2023-01-30T04:30:20;97680.06;;;3.27;59.23
63568;BME280;49715;42.386;20.434;2023-01-30T04:32:49;97674.25;;;3.23;59.44
63568;BME280;49715;42.386;20.434;2023-01-30T04:35:16;97677.69;;;3.24;59.48
63568;BME280;49715;42.386;20.434;2023-01-30T04:37:43;97677.47;;;3.27;59.49
63568;BME280;49715;42.386;20.434;2023-01-30T04:40:12;97666.44;;;3.23;59.51
63568;BME280;49715;42.386;20.434;2023-01-30T04:42:38;97680.84;;;3.29;59.42
63568;BME280;49715;42.386;20.434;2023-01-30T04:45:25;97675.72;;;3.27;59.60
63568;BME280;49715;42.386;20.434;2023-01-30T04:47:52;97671.44;;;3.26;59.34
63568;BME280;49715;42.386;20.434;2023-01-30T04:50:18;97674.78;;;3.28;59.50
63568;BME280;49715;42.386;20.434;2023-01-30T04:52:46;97656.50;;;3.16;59.42
63568;BME280;49715;42.386;20.434;2023-01-30T04:55:12;97670.91;;;3.21;59.39
63568;BME280;49715;42.386;20.434;2023-01-30T04:57:39;97662.06;;;3.24;59.33
63568;BME280;49715;42.386;20.434;2023-01-30T05:00:06;97668.63;;;3.29;59.36
63568;BME280;49715;42.386;20.434;2023-01-30T05:02:36;97669.34;;;3.31;59.22
63568;BME280;49715;42.386;20.434;2023-01-30T05:05:02;97673.44;;;3.35;59.19
63568;BME280;49715;42.386;20.434;2023-01-30T05:07:29;97668.44;;;3.32;59.19
63568;BME280;49715;42.386;20.434;2023-01-30T05:09:55;97672.72;;;3.33;59.35
63568;BME280;49715;42.386;20.434;2023-01-30T05:12:23;97663.25;;;3.32;59.30
63568;BME280;49715;42.386;20.434;2023-01-30T05:14:49;97668.44;;;3.32;59.24
63568;BME280;49715;42.386;20.434;2023-01-30T05:17:16;97666.75;;;3.31;59.41
63568;BME280;49715;42.386;20.434;2023-01-30T05:19:42;97677.94;;;3.33;59.15
63568;BME280;49715;42.386;20.434;2023-01-30T05:22:08;97666.56;;;3.34;59.25
63568;BME280;49715;42.386;20.434;2023-01-30T05:24:35;97663.25;;;3.32;59.26
63568;BME280;49715;42.386;20.434;2023-01-30T05:27:01;97669.28;;;3.33;59.32
63568;BME280;49715;42.386;20.434;2023-01-30T05:29:28;97664.16;;;3.31;59.35
63568;BME280;49715;42.386;20.434;2023-01-30T05:31:54;97669.47;;;3.30;59.25
63568;BME280;49715;42.386;20.434;2023-01-30T05:34:23;97665.31;;;3.27;59.30
63568;BME280;49715;42.386;20.434;2023-01-30T05:36:49;97672.19;;;3.28;59.28
63568;BME280;49715;42.386;20.434;2023-01-30T05:39:15;97666.75;;;3.31;59.25
63568;BME280;49715;42.386;20.434;2023-01-30T05:41:42;97670.31;;;3.30;59.29
63568;BME280;49715;42.386;20.434;2023-01-30T05:44:08;97668.34;;;3.34;59.49
63568;BME280;49715;42.386;20.434;2023-01-30T05:46:35;97654.88;;;3.27;59.21
63568;BME280;49715;42.386;20.434;2023-01-30T05:49:01;97668.88;;;3.39;59.16
63568;BME280;49715;42.386;20.434;2023-01-30T05:51:29;97670.47;;;3.42;59.34
63568;BME280;49715;42.386;20.434;2023-01-30T05:53:55;97665.84;;;3.45;59.14
63568;BME280;49715;42.386;20.434;2023-01-30T05:56:22;97661.78;;;3.41;59.12
63568;BME280;49715;42.386;20.434;2023-01-30T05:58:50;97659.94;;;3.43;58.93
63568;BME280;49715;42.386;20.434;2023-01-30T06:01:17;97661.69;;;3.43;58.89
63568;BME280;49715;42.386;20.434;2023-01-30T06:03:43;97661.78;;;3.41;59.06
63568;BME280;49715;42.386;20.434;2023-01-30T06:06:10;97661.78;;;3.41;59.06
63568;BME280;49715;42.386;20.434;2023-01-30T06:08:37;97658.88;;;3.46;59.08
63568;BME280;49715;42.386;20.434;2023-01-30T06:11:09;97659.72;;;3.46;58.83
63568;BME280;49715;42.386;20.434;2023-01-30T06:13:36;97665.56;;;3.50;58.91
63568;BME280;49715;42.386;20.434;2023-01-30T06:16:04;97665.78;;;3.47;58.94
63568;BME280;49715;42.386;20.434;2023-01-30T06:18:30;97662.00;;;3.51;58.95
63568;BME280;49715;42.386;20.434;2023-01-30T06:20:57;97658.69;;;3.49;59.01
63568;BME280;49715;42.386;20.434;2023-01-30T06:23:23;97658.16;;;3.44;58.98
63568;BME280;49715;42.386;20.434;2023-01-30T06:25:50;97663.91;;;3.49;59.02
63568;BME280;49715;42.386;20.434;2023-01-30T06:28:18;97663.06;;;3.48;58.97
63568;BME280;49715;42.386;20.434;2023-01-30T06:30:44;97656.56;;;3.41;59.03
63568;BME280;49715;42.386;20.434;2023-01-30T06:33:11;97654.19;;;3.38;58.96
63568;BME280;49715;42.386;20.434;2023-01-30T06:35:38;97649.91;;;3.37;59.30
63568;BME280;49715;42.386;20.434;2023-01-30T06:38:05;97653.97;;;3.41;59.23
63568;BME280;49715;42.386;20.434;2023-01-30T06:40:34;97641.03;;;3.40;59.38
63568;BME280;49715;42.386;20.434;2023-01-30T06:43:01;97646.91;;;3.43;59.07
63568;BME280;49715;42.386;20.434;2023-01-30T06:45:27;97657.63;;;3.51;59.19
63568;BME280;49715;42.386;20.434;2023-01-30T06:47:54;97641.16;;;3.51;59.19
63568;BME280;49715;42.386;20.434;2023-01-30T06:50:23;97642.34;;;3.59;59.06
63568;BME280;49715;42.386;20.434;2023-01-30T06:52:51;97645.38;;;3.66;59.07
63568;BME280;49715;42.386;20.434;2023-01-30T06:55:20;97644.22;;;3.70;58.98
63568;BME280;49715;42.386;20.434;2023-01-30T06:57:47;97639.75;;;3.72;58.72
63568;BME280;49715;42.386;20.434;2023-01-30T07:00:17;97644.31;;;3.69;59.02
63568;BME280;49715;42.386;20.434;2023-01-30T07:02:45;97655.81;;;3.79;59.15
63568;BME280;49715;42.386;20.434;2023-01-30T07:05:12;97654.25;;;3.76;58.86
63568;BME280;49715;42.386;20.434;2023-01-30T07:07:38;97653.94;;;3.81;58.98
63568;BME280;49715;42.386;20.434;2023-01-30T07:10:06;97661.25;;;3.88;58.98
63568;BME280;49715;42.386;20.434;2023-01-30T07:12:33;97654.25;;;3.89;58.90
63568;BME280;49715;42.386;20.434;2023-01-30T07:14:59;97659.28;;;3.92;58.98
63568;BME280;49715;42.386;20.434;2023-01-30T07:17:25;97658.97;;;3.97;59.04
63568;BME280;49715;42.386;20.434;2023-01-30T07:19:52;97659.47;;;4.02;58.82
63568;BME280;49715;42.386;20.434;2023-01-30T07:22:18;97679.94;;;4.08;58.57
63568;BME280;49715;42.386;20.434;2023-01-30T07:24:45;97666.69;;;4.11;58.49
63568;BME280;49715;42.386;20.434;2023-01-30T07:27:12;97663.84;;;4.14;58.33
63568;BME280;49715;42.386;20.434;2023-01-30T07:29:39;97660.31;;;4.15;58.38
63568;BME280;49715;42.386;20.434;2023-01-30T07:32:07;97654.34;;;4.13;58.64
63568;BME280;49715;42.386;20.434;2023-01-30T07:34:37;97653.31;;;4.16;58.30
63568;BME280;49715;42.386;20.434;2023-01-30T07:37:04;97651.94;;;4.23;58.44
63568;BME280;49715;42.386;20.434;2023-01-30T07:39:31;97647.47;;;4.25;58.23
63568;BME280;49715;42.386;20.434;2023-01-30T07:41:59;97651.13;;;4.22;58.25
63568;BME280;49715;42.386;20.434;2023-01-30T07:44:26;97645.19;;;4.20;58.29
63568;BME280;49715;42.386;20.434;2023-01-30T07:46:53;97654.75;;;4.20;58.50
63568;BME280;49715;42.386;20.434;2023-01-30T07:49:19;97661.66;;;4.21;58.33
63568;BME280;49715;42.386;20.434;2023-01-30T07:51:46;97655.00;;;4.17;58.42
63568;BME280;49715;42.386;20.434;2023-01-30T07:54:12;97651.88;;;4.11;58.55
63568;BME280;49715;42.386;20.434;2023-01-30T07:56:39;97653.22;;;4.17;58.58
63568;BME280;49715;42.386;20.434;2023-01-30T07:59:05;97638.78;;;4.24;58.62
63568;BME280;49715;42.386;20.434;2023-01-30T08:01:31;97651.22;;;4.33;58.47
63568;BME280;49715;42.386;20.434;2023-01-30T08:03:58;97645.06;;;4.34;58.31
63568;BME280;49715;42.386;20.434;2023-01-30T08:06:24;97623.56;;;4.18;58.50
63568;BME280;49715;42.386;20.434;2023-01-30T08:08:51;97642.53;;;4.33;58.37
63568;BME280;49715;42.386;20.434;2023-01-30T08:11:17;97639.31;;;4.29;58.35
63568;BME280;49715;42.386;20.434;2023-01-30T08:13:44;97633.25;;;4.29;58.45
63568;BME280;49715;42.386;20.434;2023-01-30T08:16:12;97629.72;;;4.30;58.31
63568;BME280;49715;42.386;20.434;2023-01-30T08:18:38;97632.63;;;4.38;58.24
63568;BME280;49715;42.386;20.434;2023-01-30T08:21:05;97639.19;;;4.44;58.14
63568;BME280;49715;42.386;20.434;2023-01-30T08:23:32;97650.81;;;4.39;57.12
63568;BME280;49715;42.386;20.434;2023-01-30T08:26:01;97642.94;;;4.52;57.65
63568;BME280;49715;42.386;20.434;2023-01-30T08:28:28;97641.56;;;4.59;57.59
63568;BME280;49715;42.386;20.434;2023-01-30T08:30:55;97649.34;;;4.72;57.21
63568;BME280;49715;42.386;20.434;2023-01-30T08:33:22;97639.97;;;4.70;56.44
63568;BME280;49715;42.386;20.434;2023-01-30T08:35:49;97634.53;;;4.73;57.26
63568;BME280;49715;42.386;20.434;2023-01-30T08:38:16;97634.44;;;4.74;57.31
63568;BME280;49715;42.386;20.434;2023-01-30T08:40:43;97637.75;;;4.76;57.27
63568;BME280;49715;42.386;20.434;2023-01-30T08:43:09;97640.03;;;4.81;57.24
63568;BME280;49715;42.386;20.434;2023-01-30T08:45:36;97642.94;;;4.89;57.03
63568;BME280;49715;42.386;20.434;2023-01-30T08:48:04;97634.66;;;4.95;56.87
63568;BME280;49715;42.386;20.434;2023-01-30T08:50:31;97643.22;;;4.97;56.70
63568;BME280;49715;42.386;20.434;2023-01-30T08:53:07;97637.28;;;4.95;56.54
63568;BME280;49715;42.386;20.434;2023-01-30T08:55:34;97637.91;;;4.99;56.67
63568;BME280;49715;42.386;20.434;2023-01-30T08:58:01;97633.00;;;4.94;56.50
63568;BME280;49715;42.386;20.434;2023-01-30T09:00:28;97637.31;;;5.06;56.42
63568;BME280;49715;42.386;20.434;2023-01-30T09:02:55;97649.72;;;5.15;56.43
63568;BME280;49715;42.386;20.434;2023-01-30T09:05:22;97643.88;;;5.12;56.03
63568;BME280;49715;42.386;20.434;2023-01-30T09:07:49;97656.41;;;5.20;56.22
63568;BME280;49715;42.386;20.434;2023-01-30T09:10:17;97656.78;;;5.26;56.19
63568;BME280;49715;42.386;20.434;2023-01-30T09:12:44;97649.44;;;5.31;55.56
63568;BME280;49715;42.386;20.434;2023-01-30T09:15:12;97642.44;;;5.32;55.59
63568;BME280;49715;42.386;20.434;2023-01-30T09:17:39;97643.16;;;5.34;55.38
63568;BME280;49715;42.386;20.434;2023-01-30T09:20:06;97646.13;;;5.29;54.11
63568;BME280;49715;42.386;20.434;2023-01-30T09:22:33;97655.78;;;5.40;55.47
63568;BME280;49715;42.386;20.434;2023-01-30T09:24:59;97632.72;;;5.34;55.48
63568;BME280;49715;42.386;20.434;2023-01-30T09:27:26;97637.25;;;5.43;55.61
63568;BME280;49715;42.386;20.434;2023-01-30T09:29:54;97627.41;;;5.47;55.53
63568;BME280;49715;42.386;20.434;2023-01-30T09:32:22;97605.75;;;5.33;55.26
63568;BME280;49715;42.386;20.434;2023-01-30T09:34:49;97616.09;;;5.46;54.99
63568;BME280;49715;42.386;20.434;2023-01-30T09:37:15;97606.09;;;5.40;54.78
63568;BME280;49715;42.386;20.434;2023-01-30T09:39:42;97629.09;;;5.59;55.26
63568;BME280;49715;42.386;20.434;2023-01-30T09:45:29;97631.53;;;5.73;54.62
63568;BME280;49715;42.386;20.434;2023-01-30T09:53:19;97622.59;;;5.76;51.94
63568;BME280;49715;42.386;20.434;2023-01-30T09:55:47;97609.28;;;5.79;54.71
63568;BME280;49715;42.386;20.434;2023-01-30T09:58:20;97619.78;;;5.90;54.70
63568;BME280;49715;42.386;20.434;2023-01-30T10:00:48;97610.78;;;5.94;54.57
63568;BME280;49715;42.386;20.434;2023-01-30T10:03:19;97605.66;;;6.04;54.64
63568;BME280;49715;42.386;20.434;2023-01-30T10:06:00;97602.56;;;6.10;54.20
63568;BME280;49715;42.386;20.434;2023-01-30T10:08:49;97602.81;;;6.18;54.00
63568;BME280;49715;42.386;20.434;2023-01-30T10:15:01;97597.34;;;6.10;53.19
63568;BME280;49715;42.386;20.434;2023-01-30T10:18:14;97590.09;;;6.13;53.66
63568;BME280;49715;42.386;20.434;2023-01-30T10:26:24;97568.31;;;6.13;53.91
63568;BME280;49715;42.386;20.434;2023-01-30T10:32:19;97558.09;;;6.21;53.25
63568;BME280;49715;42.386;20.434;2023-01-30T10:34:50;97549.06;;;6.25;53.37
63568;BME280;49715;42.386;20.434;2023-01-30T10:40:25;97537.75;;;6.36;53.42
63568;BME280;49715;42.386;20.434;2023-01-30T10:43:19;97547.94;;;6.39;53.17
63568;BME280;49715;42.386;20.434;2023-01-30T10:56:33;97514.06;;;6.37;52.22
63568;BME280;49715;42.386;20.434;2023-01-30T11:01:58;97519.88;;;6.41;52.21
63568;BME280;49715;42.386;20.434;2023-01-30T11:06:52;97503.56;;;6.37;52.69
63568;BME280;49715;42.386;20.434;2023-01-30T11:09:19;97496.06;;;6.44;52.68
63568;BME280;49715;42.386;20.434;2023-01-30T11:11:51;97494.25;;;6.56;52.48
63568;BME280;49715;42.386;20.434;2023-01-30T11:14:18;97489.72;;;6.58;52.30
63568;BME280;49715;42.386;20.434;2023-01-30T11:16:55;97482.97;;;6.44;52.09
63568;BME280;49715;42.386;20.434;2023-01-30T11:19:30;97480.00;;;6.37;52.35
63568;BME280;49715;42.386;20.434;2023-01-30T11:22:03;97471.56;;;6.34;52.26
63568;BME280;49715;42.386;20.434;2023-01-30T11:24:44;97480.25;;;6.45;51.88
63568;BME280;49715;42.386;20.434;2023-01-30T11:27:16;97470.69;;;6.56;52.02
63568;BME280;49715;42.386;20.434;2023-01-30T11:29:44;97459.00;;;6.60;51.87
63568;BME280;49715;42.386;20.434;2023-01-30T11:32:14;97459.47;;;6.65;51.73
63568;BME280;49715;42.386;20.434;2023-01-30T11:35:10;97453.41;;;6.64;51.19
63568;BME280;49715;42.386;20.434;2023-01-30T11:37:44;97429.94;;;6.63;51.73
63568;BME280;49715;42.386;20.434;2023-01-30T11:42:49;97443.38;;;6.69;51.59
63568;BME280;49715;42.386;20.434;2023-01-30T11:45:20;97436.44;;;6.68;51.75
63568;BME280;49715;42.386;20.434;2023-01-30T11:48:00;97433.81;;;6.68;51.35
63568;BME280;49715;42.386;20.434;2023-01-30T11:50:49;97436.44;;;6.68;51.05
63568;BME280;49715;42.386;20.434;2023-01-30T11:53:38;97423.63;;;6.65;51.27
63568;BME280;49715;42.386;20.434;2023-01-30T11:56:16;97422.66;;;6.66;51.68
63568;BME280;49715;42.386;20.434;2023-01-30T11:58:54;97412.41;;;6.75;51.53
63568;BME280;49715;42.386;20.434;2023-01-30T12:01:35;97416.91;;;6.72;50.84
63568;BME280;49715;42.386;20.434;2023-01-30T12:04:05;97412.31;;;6.65;51.25
63568;BME280;49715;42.386;20.434;2023-01-30T12:06:36;97400.44;;;6.61;51.47
63568;BME280;49715;42.386;20.434;2023-01-30T12:09:03;97394.00;;;6.65;51.26
63568;BME280;49715;42.386;20.434;2023-01-30T12:14:36;97389.72;;;6.64;50.82
63568;BME280;49715;42.386;20.434;2023-01-30T12:17:15;97383.16;;;6.58;51.02
63568;BME280;49715;42.386;20.434;2023-01-30T12:23:11;97382.56;;;6.34;51.02
63568;BME280;49715;42.386;20.434;2023-01-30T12:26:04;97365.22;;;6.33;50.64
63568;BME280;49715;42.386;20.434;2023-01-30T12:28:55;97372.97;;;6.55;51.19
63568;BME280;49715;42.386;20.434;2023-01-30T12:31:28;97360.16;;;6.83;51.24
63568;BME280;49715;42.386;20.434;2023-01-30T12:33:56;97358.25;;;7.06;50.98
63568;BME280;49715;42.386;20.434;2023-01-30T12:44:01;97336.44;;;7.86;49.65
63568;BME280;49715;42.386;20.434;2023-01-30T12:46:43;97311.44;;;7.91;49.56
63568;BME280;49715;42.386;20.434;2023-01-30T12:49:37;97327.47;;;8.17;48.97
63568;BME280;49715;42.386;20.434;2023-01-30T12:58:23;97305.47;;;8.67;48.34
63568;BME280;49715;42.386;20.434;2023-01-30T13:03:34;97304.31;;;8.98;47.85
63568;BME280;49715;42.386;20.434;2023-01-30T13:06:29;97297.06;;;9.10;46.39
63568;BME280;49715;42.386;20.434;2023-01-30T13:14:35;97287.00;;;9.33;47.08
63568;BME280;49715;42.386;20.434;2023-01-30T13:27:58;97282.09;;;9.66;46.85
63568;BME280;49715;42.386;20.434;2023-01-30T13:30:28;97274.19;;;9.66;47.05
63568;BME280;49715;42.386;20.434;2023-01-30T13:33:00;97283.16;;;9.73;46.85
63568;BME280;49715;42.386;20.434;2023-01-30T13:35:35;97266.00;;;9.69;46.44
63568;BME280;49715;42.386;20.434;2023-01-30T13:38:06;97266.75;;;9.61;46.59
63568;BME280;49715;42.386;20.434;2023-01-30T13:40:38;97289.53;;;9.52;46.53
63568;BME280;49715;42.386;20.434;2023-01-30T13:45:40;97287.94;;;9.05;46.16
63568;BME280;49715;42.386;20.434;2023-01-30T13:53:34;97269.56;;;8.19;46.85
63568;BME280;49715;42.386;20.434;2023-01-30T13:59:14;97245.69;;;8.41;47.72
63568;BME280;49715;42.386;20.434;2023-01-30T14:07:31;97234.03;;;8.91;46.53
63568;BME280;49715;42.386;20.434;2023-01-30T14:12:49;97226.47;;;8.78;46.85
63568;BME280;49715;42.386;20.434;2023-01-30T14:15:19;97221.84;;;8.62;46.82
63568;BME280;49715;42.386;20.434;2023-01-30T14:18:06;97223.69;;;8.42;46.26
63568;BME280;49715;42.386;20.434;2023-01-30T14:20:43;97212.38;;;8.22;46.93
63568;BME280;49715;42.386;20.434;2023-01-30T14:23:33;97224.28;;;8.07;46.76
63568;BME280;49715;42.386;20.434;2023-01-30T14:26:00;97209.78;;;7.84;47.28
63568;BME280;49715;42.386;20.434;2023-01-30T14:30:58;97218.06;;;7.50;47.46
63568;BME280;49715;42.386;20.434;2023-01-30T14:38:24;97214.47;;;6.91;47.80
63568;BME280;49715;42.386;20.434;2023-01-30T14:45:55;97221.69;;;6.38;47.96
63568;BME280;49715;42.386;20.434;2023-01-30T15:04:44;97211.16;;;6.07;49.10
63568;BME280;49715;42.386;20.434;2023-01-30T15:29:31;97222.78;;;5.93;49.55
63568;BME280;49715;42.386;20.434;2023-01-30T15:32:23;97217.81;;;5.79;49.38
63568;BME280;49715;42.386;20.434;2023-01-30T15:34:53;97214.88;;;5.73;49.47
63568;BME280;49715;42.386;20.434;2023-01-30T15:46:08;97216.94;;;5.26;49.84
63568;BME280;49715;42.386;20.434;2023-01-30T15:51:31;97223.25;;;5.12;49.90
63568;BME280;49715;42.386;20.434;2023-01-30T15:54:02;97221.41;;;5.03;50.07
63568;BME280;49715;42.386;20.434;2023-01-30T15:56:30;97214.38;;;4.92;50.24
63568;BME280;49715;42.386;20.434;2023-01-30T15:58:59;97228.53;;;4.89;50.34
63568;BME280;49715;42.386;20.434;2023-01-30T16:01:27;97223.06;;;4.81;50.54
63568;BME280;49715;42.386;20.434;2023-01-30T16:03:53;97232.34;;;4.74;50.61
63568;BME280;49715;42.386;20.434;2023-01-30T16:06:34;97228.66;;;4.65;50.33
63568;BME280;49715;42.386;20.434;2023-01-30T16:09:15;97234.69;;;4.66;50.71
63568;BME280;49715;42.386;20.434;2023-01-30T16:11:43;97232.31;;;4.63;50.80
63568;BME280;49715;42.386;20.434;2023-01-30T16:14:12;97223.91;;;4.59;50.83
63568;BME280;49715;42.386;20.434;2023-01-30T16:17:00;97233.00;;;4.54;51.04
63568;BME280;49715;42.386;20.434;2023-01-30T16:19:31;97228.06;;;4.51;50.82
63568;BME280;49715;42.386;20.434;2023-01-30T16:22:04;97219.88;;;4.44;50.98
63568;BME280;49715;42.386;20.434;2023-01-30T16:24:34;97219.13;;;4.42;51.15
63568;BME280;49715;42.386;20.434;2023-01-30T16:27:05;97210.22;;;4.33;51.01
63568;BME280;49715;42.386;20.434;2023-01-30T16:29:58;97214.63;;;4.33;51.04